Time;durP1;ratioP1;P1;durP2;ratioP2;P2;SDS_P1;SDS_P2;PMS_P1;PMS_P2;Temp;Humidity;BMP_temperature;BMP_pressure;BME280_temperature;BME280_humidity;BME280_pressure;Samples;Min_cycle;Max_cycle;Signal;HPM_P1;HPM_P2
2022/05/22 00:02:09;;;;;;;7.70;3.07;;;16.40;99.90;;;;;;5095471;28;20024;-67
2022/05/22 00:04:35;;;;;;;6.38;3.50;;;16.40;99.90;;;;;;5094931;28;20341;-67
2022/05/22 00:07:01;;;;;;;6.05;3.15;;;16.40;99.90;;;;;;5076781;28;20021;-67
2022/05/22 00:09:28;;;;;;;5.68;2.72;;;16.30;99.90;;;;;;5095957;28;20042;-67
2022/05/22 00:11:55;;;;;;;5.45;2.88;;;16.30;99.90;;;;;;5097958;28;20187;-67
2022/05/22 00:14:21;;;;;;;;;;;16.30;99.90;;;;;;5096902;28;20081;-67
2022/05/22 00:16:47;;;;;;;4.07;2.40;;;16.30;99.90;;;;;;5096004;28;19943;-67
2022/05/22 00:19:17;;;;;;;;;;;16.30;99.90;;;;;;5095365;28;20024;-67
2022/05/22 00:21:43;;;;;;;3.97;2.20;;;16.30;99.90;;;;;;5095418;28;19904;-67
2022/05/22 00:24:11;;;;;;;4.80;2.83;;;16.30;99.90;;;;;;5094961;28;20031;-67
2022/05/22 00:26:40;;;;;;;6.20;3.03;;;16.30;99.90;;;;;;5076957;28;20024;-67
2022/05/22 00:29:07;;;;;;;2.92;2.13;;;16.30;99.90;;;;;;5094796;28;20454;-67
2022/05/22 00:31:33;;;;;;;;;;;16.30;99.90;;;;;;5076450;28;20028;-67
2022/05/22 00:33:59;;;;;;;5.53;2.45;;;16.30;99.90;;;;;;5075567;28;19991;-70
2022/05/22 00:36:25;;;;;;;;;;;16.20;99.90;;;;;;5094689;28;20028;-67
2022/05/22 00:38:50;;;;;;;5.82;2.85;;;16.20;99.90;;;;;;5093864;28;19958;-67
2022/05/22 00:41:17;;;;;;;5.32;2.22;;;16.10;99.90;;;;;;5109174;22;20066;-65
2022/05/22 00:43:46;;;;;;;5.32;2.10;;;16.10;99.90;;;;;;5073432;28;20029;-65
2022/05/22 00:46:13;;;;;;;4.10;2.47;;;16.10;99.90;;;;;;5073404;28;20024;-65
2022/05/22 00:48:42;;;;;;;4.75;2.45;;;16.00;99.90;;;;;;5073465;28;20035;-65
2022/05/22 00:51:12;;;;;;;5.80;2.17;;;15.90;99.90;;;;;;5067231;28;20167;-65
2022/05/22 00:53:42;;;;;;;6.43;2.00;;;15.80;99.90;;;;;;5035512;28;20036;-65
2022/05/22 00:56:11;;;;;;;6.72;2.50;;;15.80;99.90;;;;;;5053416;28;20036;-64
2022/05/22 00:58:37;;;;;;;5.85;2.30;;;15.70;99.90;;;;;;5035297;28;20222;-64
2022/05/22 01:01:03;;;;;;;5.93;2.20;;;15.70;99.90;;;;;;5053302;28;20013;-64
2022/05/22 01:03:31;;;;;;;6.40;2.75;;;15.60;99.90;;;;;;5053121;28;20087;-64
2022/05/22 01:06:05;;;;;;;4.85;2.45;;;15.60;99.90;;;;;;5053225;28;20510;-64
2022/05/22 01:08:32;;;;;;;2.45;1.90;;;15.60;99.90;;;;;;5053452;28;20431;-64
2022/05/22 01:11:02;;;;;;;6.97;2.58;;;15.50;99.90;;;;;;5053143;28;20021;-64
2022/05/22 01:13:33;;;;;;;3.83;2.08;;;15.50;99.90;;;;;;5035030;28;20127;-64
2022/05/22 01:15:59;;;;;;;3.78;1.95;;;15.40;99.90;;;;;;5053319;28;20025;-64
2022/05/22 01:18:26;;;;;;;5.05;1.95;;;15.40;99.90;;;;;;5035403;28;20025;-65
2022/05/22 01:20:53;;;;;;;6.10;2.47;;;15.40;99.90;;;;;;5053034;28;20028;-64
2022/05/22 01:23:21;;;;;;;4.68;1.85;;;15.30;99.90;;;;;;5035262;28;20021;-64
2022/05/22 01:25:47;;;;;;;3.92;2.28;;;15.30;99.90;;;;;;5035333;28;20028;-64
2022/05/22 01:28:16;;;;;;;10.00;2.33;;;15.30;99.90;;;;;;5053400;28;20021;-64
2022/05/22 01:30:41;;;;;;;4.35;2.00;;;15.20;99.90;;;;;;5053005;28;20594;-65
2022/05/22 01:33:07;;;;;;;5.60;1.92;;;15.20;99.90;;;;;;5034997;28;20055;-64
2022/05/22 01:35:35;;;;;;;4.95;2.13;;;15.20;99.90;;;;;;5053127;28;20032;-64
2022/05/22 01:38:02;;;;;;;3.58;1.85;;;15.20;99.90;;;;;;5052528;28;20092;-64
2022/05/22 01:40:28;;;;;;;2.35;1.48;;;15.10;99.90;;;;;;5052505;28;20479;-66
2022/05/22 01:42:54;;;;;;;3.22;1.60;;;15.10;99.90;;;;;;5034703;28;20055;-64
2022/05/22 01:45:23;;;;;;;3.45;1.70;;;15.10;99.90;;;;;;5052665;28;20146;-63
2022/05/22 01:47:49;;;;;;;6.97;2.50;;;15.10;99.90;;;;;;5052529;28;20013;-64
2022/05/22 01:50:15;;;;;;;3.15;1.67;;;15.20;99.90;;;;;;5052656;28;20032;-64
2022/05/22 01:52:41;;;;;;;3.42;1.90;;;15.20;99.90;;;;;;5052472;28;20549;-63
2022/05/22 01:55:08;;;;;;;2.83;2.00;;;15.40;99.90;;;;;;5052751;28;20029;-64
2022/05/22 01:57:34;;;;;;;2.63;1.77;;;15.30;99.90;;;;;;5053839;28;20106;-64
2022/05/22 02:00:00;;;;;;;5.53;2.10;;;15.20;99.90;;;;;;5052561;28;20119;-65
2022/05/22 02:02:26;;;;;;;3.65;1.55;;;15.30;99.90;;;;;;5034440;28;20018;-64
2022/05/22 02:04:51;;;;;;;5.40;1.95;;;15.50;99.90;;;;;;5052632;28;20021;-64
2022/05/22 02:10:02;;;;;;;3.10;1.73;;;15.20;99.90;;;;;;5052328;28;20347;-64
2022/05/22 02:12:28;;;;;;;;;;;15.10;99.90;;;;;;5052645;28;20040;-64
2022/05/22 02:14:54;;;;;;;2.92;1.58;;;15.10;99.90;;;;;;5052343;28;20228;-64
2022/05/22 02:17:20;;;;;;;3.30;1.83;;;15.00;99.90;;;;;;5034508;28;20028;-64
2022/05/22 02:19:46;;;;;;;4.32;2.00;;;15.10;99.90;;;;;;5052321;28;20044;-64
2022/05/22 02:22:11;;;;;;;2.97;1.67;;;15.10;99.90;;;;;;5034297;28;20025;-64
2022/05/22 02:24:37;;;;;;;3.37;1.90;;;15.10;99.90;;;;;;5052341;28;20032;-64
2022/05/22 02:27:05;;;;;;;2.93;1.77;;;15.20;99.90;;;;;;5052156;28;20025;-64
2022/05/22 02:29:30;;;;;;;4.60;1.90;;;15.20;99.90;;;;;;5052121;28;20290;-64
2022/05/22 02:31:56;;;;;;;5.60;2.43;;;15.20;99.90;;;;;;5034314;28;20016;-64
2022/05/22 02:34:21;;;;;;;2.53;1.60;;;15.30;99.90;;;;;;5052207;28;20029;-64
2022/05/22 02:36:47;;;;;;;3.77;2.50;;;15.30;99.90;;;;;;5034638;28;20259;-64
2022/05/22 02:39:12;;;;;;;4.17;2.20;;;15.30;99.90;;;;;;5052006;28;20021;-64
2022/05/22 02:41:38;;;;;;;3.95;1.80;;;15.20;99.90;;;;;;5051766;28;20793;-64
2022/05/22 02:44:04;;;;;;;3.27;1.80;;;15.30;99.90;;;;;;5052344;28;20430;-64
2022/05/22 02:46:29;;;;;;;3.70;1.90;;;15.30;99.90;;;;;;5052238;28;20021;-64
2022/05/22 02:48:55;;;;;;;3.53;2.00;;;15.20;99.90;;;;;;5051998;28;20029;-64
2022/05/22 02:51:22;;;;;;;3.63;1.90;;;15.20;99.90;;;;;;5051908;28;20260;-64
2022/05/22 02:53:48;;;;;;;6.35;2.13;;;15.30;99.90;;;;;;5033992;28;20033;-64
2022/05/22 02:56:17;;;;;;;4.03;2.00;;;15.30;99.90;;;;;;5052064;28;20036;-65
2022/05/22 02:58:43;;;;;;;3.75;2.45;;;15.20;99.90;;;;;;5055396;28;20116;-65
2022/05/22 03:01:08;;;;;;;6.57;2.47;;;15.20;99.90;;;;;;5055589;28;20411;-65
2022/05/22 03:03:34;;;;;;;5.10;2.43;;;15.10;99.90;;;;;;5055472;28;20021;-65
2022/05/22 03:08:45;;;;;;;3.35;2.10;;;15.10;99.90;;;;;;5055584;28;20051;-64
2022/05/22 03:11:11;;;;;;;4.35;1.98;;;15.00;99.90;;;;;;5055198;28;20029;-64
2022/05/22 03:13:36;;;;;;;4.32;2.10;;;15.00;99.90;;;;;;5055193;28;20025;-64
2022/05/22 03:16:02;;;;;;;2.33;1.80;;;14.90;99.90;;;;;;5037266;28;20413;-64
2022/05/22 03:18:28;;;;;;;3.65;2.20;;;14.90;99.90;;;;;;5055070;28;20068;-64
2022/05/22 03:20:53;;;;;;;4.33;2.20;;;14.90;99.90;;;;;;5054952;28;20040;-65
2022/05/22 03:23:19;;;;;;;2.60;2.10;;;14.90;99.90;;;;;;5055071;28;20318;-64
2022/05/22 03:25:46;;;;;;;3.50;2.00;;;14.90;99.90;;;;;;5055085;28;20104;-64
2022/05/22 03:28:13;;;;;;;3.33;2.03;;;14.80;99.90;;;;;;5055219;28;20021;-64
2022/05/22 03:30:38;;;;;;;;;;;14.80;99.90;;;;;;5055279;28;20107;-64
2022/05/22 03:33:04;;;;;;;6.30;2.20;;;15.00;99.90;;;;;;5054828;28;20038;-65
2022/05/22 03:35:30;;;;;;;5.60;2.05;;;15.00;99.90;;;;;;5036847;28;20045;-65
2022/05/22 03:37:55;;;;;;;8.17;2.67;;;14.90;99.90;;;;;;5054759;28;20021;-65
2022/05/22 03:40:21;;;;;;;3.03;1.85;;;14.80;99.90;;;;;;5054663;28;20025;-65
2022/05/22 03:42:47;;;;;;;3.08;1.70;;;14.70;99.90;;;;;;5036719;28;20032;-65
2022/05/22 03:45:12;;;;;;;3.05;2.40;;;14.70;99.90;;;;;;5054841;28;20079;-65
2022/05/22 03:47:41;;;;;;;4.65;2.10;;;14.70;99.90;;;;;;5036664;28;20029;-65
2022/05/22 03:50:09;;;;;;;2.70;1.88;;;14.70;99.90;;;;;;5054550;28;20029;-64
2022/05/22 03:52:36;;;;;;;3.80;1.77;;;14.70;99.90;;;;;;5054785;28;20063;-65
2022/05/22 03:55:03;;;;;;;4.10;1.90;;;14.70;99.90;;;;;;5054689;28;20044;-65
2022/05/22 03:57:29;;;;;;;3.42;2.17;;;14.70;99.90;;;;;;5054302;28;20032;-64
2022/05/22 03:59:54;;;;;;;5.23;2.37;;;14.70;99.90;;;;;;5054471;28;20028;-64
2022/05/22 04:02:20;;;;;;;4.00;2.60;;;14.70;99.90;;;;;;5054293;28;20040;-64
2022/05/22 04:04:45;;;;;;;4.60;2.15;;;14.70;99.90;;;;;;5054268;28;20029;-64
2022/05/22 04:07:11;;;;;;;2.92;2.08;;;14.60;99.90;;;;;;5054224;28;20036;-64
2022/05/22 04:09:37;;;;;;;6.07;2.10;;;14.70;99.90;;;;;;5053216;28;20426;-64
2022/05/22 04:12:11;;;;;;;4.03;2.15;;;14.70;99.90;;;;;;5054057;28;20029;-64
2022/05/22 04:14:37;;;;;;;3.30;2.25;;;14.70;99.90;;;;;;5054599;28;20030;-64
2022/05/22 04:17:03;;;;;;;3.53;1.90;;;14.70;99.90;;;;;;5054627;28;20459;-64
2022/05/22 04:19:28;;;;;;;4.97;2.15;;;14.70;99.90;;;;;;5036413;28;20036;-66
2022/05/22 04:21:54;;;;;;;3.60;2.10;;;14.70;99.90;;;;;;5054061;28;20430;-64
2022/05/22 04:27:05;;;;;;;2.78;1.90;;;14.80;99.90;;;;;;5054160;28;20028;-65
2022/05/22 04:29:32;;;;;;;5.55;2.03;;;14.80;99.90;;;;;;5053822;28;20175;-65
2022/05/22 04:31:58;;;;;;;4.07;2.00;;;14.80;99.90;;;;;;5053825;28;20086;-65
2022/05/22 04:34:23;;;;;;;3.63;1.73;;;14.80;99.90;;;;;;5054158;28;20033;-65
2022/05/22 04:36:49;;;;;;;4.70;2.90;;;14.80;99.90;;;;;;5054469;28;20081;-65
2022/05/22 04:39:14;;;;;;;3.77;1.97;;;14.80;99.90;;;;;;5054182;28;20291;-65
2022/05/22 04:41:40;;;;;;;4.15;1.83;;;14.80;99.90;;;;;;5054619;28;20120;-65
2022/05/22 04:44:06;;;;;;;4.00;2.05;;;14.80;99.90;;;;;;5054188;28;20476;-65
2022/05/22 04:46:32;;;;;;;3.80;1.60;;;14.80;99.90;;;;;;5053884;28;20013;-65
2022/05/22 04:48:57;;;;;;;2.95;1.73;;;14.80;99.90;;;;;;5053818;28;20036;-65
2022/05/22 04:51:23;;;;;;;2.50;1.83;;;14.80;99.90;;;;;;5053743;28;20131;-65
2022/05/22 04:53:49;;;;;;;4.60;1.87;;;14.90;99.90;;;;;;5053885;28;20670;-64
2022/05/22 04:56:15;;;;;;;;;;;14.80;99.90;;;;;;5054182;28;20035;-65
2022/05/22 04:58:41;;;;;;;3.08;1.92;;;14.80;99.90;;;;;;5053873;28;20007;-64
2022/05/22 05:01:09;;;;;;;2.10;1.35;;;14.80;99.90;;;;;;5054249;28;20162;-63
2022/05/22 05:03:35;;;;;;;3.78;1.60;;;14.80;99.90;;;;;;5053636;28;20037;-63
2022/05/22 05:06:00;;;;;;;4.47;1.83;;;14.80;99.90;;;;;;5053822;28;20066;-64
2022/05/22 05:08:27;;;;;;;8.20;1.92;;;14.80;99.90;;;;;;5053394;28;20033;-63
2022/05/22 05:10:53;;;;;;;8.10;2.38;;;14.80;99.90;;;;;;5053151;28;20075;-64
2022/05/22 05:13:20;;;;;;;2.55;1.80;;;14.90;99.90;;;;;;5053253;28;20402;-66
2022/05/22 05:15:46;;;;;;;3.85;1.88;;;14.90;99.90;;;;;;5053182;28;20411;-66
2022/05/22 05:18:13;;;;;;;4.40;2.00;;;14.90;99.90;;;;;;5052983;28;20032;-64
2022/05/22 05:20:39;;;;;;;4.72;1.75;;;14.90;99.90;;;;;;5052701;28;20092;-65
2022/05/22 05:23:05;;;;;;;2.95;1.67;;;14.90;99.90;;;;;;5035264;28;20099;-65
2022/05/22 05:25:31;;;;;;;2.42;1.50;;;14.90;99.90;;;;;;5052993;28;20036;-65
2022/05/22 05:27:56;;;;;;;2.63;1.75;;;15.00;99.90;;;;;;5053086;28;20021;-64
2022/05/22 05:30:22;;;;;;;5.47;2.15;;;15.00;99.90;;;;;;5052809;28;20040;-64
2022/05/22 05:32:53;;;;;;;3.63;1.70;;;15.00;99.90;;;;;;5052916;28;20064;-65
2022/05/22 05:35:18;;;;;;;2.15;1.70;;;15.00;99.90;;;;;;5053189;28;20078;-64
2022/05/22 05:37:44;;;;;;;3.03;1.92;;;15.10;99.90;;;;;;5034913;28;20029;-65
2022/05/22 05:40:10;;;;;;;2.67;1.63;;;15.00;99.90;;;;;;5034783;28;20079;-65
2022/05/22 05:42:36;;;;;;;4.22;1.73;;;15.00;99.90;;;;;;5052830;28;20032;-64
2022/05/22 05:45:05;;;;;;;2.33;1.65;;;15.00;99.90;;;;;;5034768;28;20395;-64
2022/05/22 05:47:31;;;;;;;2.47;1.60;;;15.00;99.90;;;;;;5052884;28;20047;-64
2022/05/22 05:49:57;;;;;;;3.15;2.17;;;15.10;99.90;;;;;;5052829;28;20060;-65
2022/05/22 05:52:22;;;;;;;4.57;2.17;;;15.20;99.90;;;;;;5052482;28;20102;-64
2022/05/22 05:54:48;;;;;;;5.93;2.38;;;15.20;99.90;;;;;;5052571;28;20443;-65
2022/05/22 05:57:15;;;;;;;4.57;1.88;;;15.20;99.90;;;;;;5052528;28;20094;-65
2022/05/22 05:59:41;;;;;;;4.35;1.90;;;15.30;99.90;;;;;;5034340;28;20376;-65
2022/05/22 06:02:11;;;;;;;4.63;2.10;;;15.40;99.90;;;;;;5034355;28;20046;-65
2022/05/22 06:04:36;;;;;;;3.22;2.08;;;15.50;99.90;;;;;;5052405;28;20507;-65
2022/05/22 06:07:02;;;;;;;2.23;1.93;;;15.60;99.90;;;;;;5034595;28;20025;-65
2022/05/22 06:09:28;;;;;;;6.18;2.42;;;16.10;99.90;;;;;;5052244;28;20048;-65
2022/05/22 06:11:53;;;;;;;4.50;2.65;;;16.20;99.90;;;;;;5052321;28;20025;-65
2022/05/22 06:14:19;;;;;;;5.17;2.30;;;16.20;99.90;;;;;;5052334;28;20043;-65
2022/05/22 06:16:45;;;;;;;3.83;2.17;;;16.30;99.90;;;;;;5034447;28;20263;-65
2022/05/22 06:19:10;;;;;;;5.05;1.80;;;16.40;99.90;;;;;;5052488;28;20279;-65
2022/05/22 06:21:36;;;;;;;2.40;1.80;;;16.50;99.90;;;;;;5052306;28;20501;-65
2022/05/22 06:24:01;;;;;;;4.70;2.17;;;16.50;99.90;;;;;;5052251;28;20805;-65
2022/05/22 06:26:27;;;;;;;5.93;2.13;;;16.60;99.90;;;;;;5052343;28;20203;-65
2022/05/22 06:28:52;;;;;;;2.95;1.80;;;16.70;99.90;;;;;;5034422;28;20033;-65
2022/05/22 06:31:18;;;;;;;3.67;1.85;;;16.80;99.90;;;;;;5052644;28;20052;-65
2022/05/22 06:33:44;;;;;;;3.20;1.70;;;16.80;99.90;;;;;;5056218;28;20028;-65
2022/05/22 06:36:12;;;;;;;3.80;1.80;;;16.90;99.90;;;;;;5056296;28;20365;-65
2022/05/22 06:41:23;;;;;;;3.78;1.80;;;17.00;99.90;;;;;;5093462;23;20078;-67
2022/05/22 06:43:51;;;;;;;5.65;1.77;;;17.00;99.90;;;;;;5117713;28;20030;-67
2022/05/22 06:46:18;;;;;;;2.38;1.67;;;17.10;99.90;;;;;;5116939;28;20438;-67
2022/05/22 06:48:44;;;;;;;2.97;1.90;;;17.20;99.90;;;;;;5098892;28;20448;-66
2022/05/22 06:51:10;;;;;;;4.25;2.60;;;17.30;99.90;;;;;;5116582;28;20031;-66
2022/05/22 06:53:35;;;;;;;5.32;2.40;;;17.40;99.90;;;;;;5116616;28;20481;-66
2022/05/22 06:56:01;;;;;;;6.65;2.42;;;17.50;99.90;;;;;;5098451;28;20023;-66
2022/05/22 06:58:26;;;;;;;3.70;2.53;;;17.60;99.90;;;;;;5116777;28;20039;-66
2022/05/22 07:00:52;;;;;;;3.90;2.27;;;17.60;99.90;;;;;;5116960;28;20289;-66
2022/05/22 07:03:18;;;;;;;3.67;2.20;;;17.60;99.90;;;;;;5116991;28;20758;-66
2022/05/22 07:05:44;;;;;;;5.28;2.05;;;17.70;99.90;;;;;;5116883;28;20389;-66
2022/05/22 07:08:10;;;;;;;2.55;1.92;;;17.80;99.90;;;;;;5116508;28;20047;-67
2022/05/22 07:13:20;;;;;;;5.35;2.15;;;18.00;99.90;;;;;;5115964;28;20050;-67
2022/05/22 07:15:55;;;;;;;3.38;1.70;;;18.00;99.90;;;;;;5097669;28;20031;-66
2022/05/22 07:18:21;;;;;;;5.93;2.63;;;18.10;99.90;;;;;;5115952;28;20103;-67
2022/05/22 07:20:46;;;;;;;3.17;1.85;;;18.10;99.90;;;;;;5116135;28;20103;-67
2022/05/22 07:23:12;;;;;;;6.25;2.20;;;18.30;99.90;;;;;;5116415;28;20081;-67
2022/05/22 07:25:37;;;;;;;2.63;1.85;;;18.20;99.90;;;;;;5097322;28;20016;-67
2022/05/22 07:28:03;;;;;;;6.53;2.97;;;18.20;99.90;;;;;;5115906;28;20493;-67
2022/05/22 07:30:29;;;;;;;3.95;2.47;;;18.20;99.90;;;;;;5116012;28;20473;-67
2022/05/22 07:32:55;;;;;;;3.63;2.00;;;18.30;99.90;;;;;;5115960;28;20546;-67
2022/05/22 07:35:20;;;;;;;3.78;1.90;;;18.40;99.90;;;;;;5116084;28;20050;-67
2022/05/22 07:37:49;;;;;;;5.38;1.95;;;18.30;99.90;;;;;;5116035;28;20032;-67
2022/05/22 07:40:15;;;;;;;3.05;1.90;;;18.40;99.90;;;;;;5097342;28;20114;-67
2022/05/22 07:42:40;;;;;;;3.67;1.90;;;18.40;99.90;;;;;;5115547;28;20527;-66
2022/05/22 07:45:07;;;;;;;4.57;1.80;;;18.50;99.90;;;;;;5097740;28;20068;-67
2022/05/22 07:47:33;;;;;;;4.50;1.98;;;18.60;99.90;;;;;;5115804;28;20099;-67
2022/05/22 07:50:16;;;;;;;4.88;1.75;;;18.70;99.90;;;;;;5115770;28;20124;-67
2022/05/22 07:52:42;;;;;;;3.28;2.10;;;18.80;99.90;;;;;;5115581;28;20060;-66
2022/05/22 07:55:14;;;;;;;2.85;1.90;;;18.80;99.90;;;;;;5115399;28;20065;-66
2022/05/22 07:57:44;;;;;;;4.63;1.60;;;18.90;99.90;;;;;;5115441;28;20058;-66
2022/05/22 08:00:11;;;;;;;5.03;2.90;;;19.10;99.90;;;;;;5115218;28;20402;-65
2022/05/22 08:02:37;;;;;;;5.22;2.35;;;19.20;99.90;;;;;;5114820;28;20020;-68
2022/05/22 08:05:04;;;;;;;3.25;1.70;;;19.40;99.90;;;;;;5096611;28;20026;-67
2022/05/22 08:07:31;;;;;;;4.20;1.52;;;19.90;99.30;;;;;;5096737;28;20024;-69
2022/05/22 08:09:56;;;;;;;2.95;1.80;;;21.20;98.20;;;;;;5115305;28;20027;-67
2022/05/22 08:12:22;;;;;;;2.50;1.45;;;22.80;94.90;;;;;;5114684;28;20107;-66
2022/05/22 08:14:48;;;;;;;;;;;24.60;91.70;;;;;;5115474;28;20027;-66
2022/05/22 08:17:15;;;;;;;4.22;1.60;;;26.40;88.80;;;;;;5114803;28;19911;-69
2022/05/22 08:19:41;;;;;;;4.10;1.50;;;28.30;82.30;;;;;;5114820;28;20476;-69
2022/05/22 08:22:07;;;;;;;3.90;1.60;;;29.70;73.70;;;;;;5114770;28;20308;-67
2022/05/22 08:24:33;;;;;;;2.72;1.50;;;29.50;71.60;;;;;;5114521;28;20072;-67
2022/05/22 08:26:58;;;;;;;1.75;1.08;;;30.10;70.10;;;;;;5096218;28;20070;-71
2022/05/22 08:29:24;;;;;;;3.60;1.40;;;31.50;65.40;;;;;;5114666;28;20049;-71
2022/05/22 08:31:49;;;;;;;3.00;1.40;;;32.40;62.80;;;;;;5096037;28;20428;-69
2022/05/22 08:34:15;;;;;;;1.92;1.30;;;32.80;60.20;;;;;;5096551;28;20023;-70
2022/05/22 08:36:42;;;;;;;3.17;1.48;;;33.20;57.90;;;;;;5114399;28;20024;-69
2022/05/22 08:39:07;;;;;;;4.22;1.42;;;33.30;57.60;;;;;;5114348;28;20028;-70
2022/05/22 08:41:40;;;;;;;2.13;1.15;;;34.30;55.60;;;;;;5096025;28;20134;-70
2022/05/22 08:44:14;;;;;;;2.00;1.00;;;34.20;55.40;;;;;;5114183;28;20069;-67
2022/05/22 08:46:57;;;;;;;2.53;1.17;;;34.30;54.20;;;;;;5114192;28;20073;-68
2022/05/22 08:49:39;;;;;;;2.33;1.15;;;34.60;54.10;;;;;;5114315;28;20393;-67
2022/05/22 08:52:34;;;;;;;1.95;1.10;;;35.10;52.60;;;;;;5114119;28;20020;-67
2022/05/22 08:55:09;;;;;;;4.97;1.52;;;34.60;52.70;;;;;;5098836;28;20042;-66
2022/05/22 09:00:43;;;;;;;4.82;1.58;;;34.20;54.10;;;;;;5114238;28;20027;-64
2022/05/22 09:03:24;;;;;;;2.70;1.20;;;34.60;53.40;;;;;;5113518;28;20476;-67
2022/05/22 09:05:55;;;;;;;3.05;1.20;;;35.30;52.70;;;;;;5113798;28;20028;-66
2022/05/22 09:08:35;;;;;;;3.00;1.42;;;36.70;51.80;;;;;;5113799;28;20027;-66
2022/05/22 09:11:05;;;;;;;3.13;1.38;;;37.30;49.40;;;;;;5113748;28;20489;-67
2022/05/22 09:13:45;;;;;;;3.58;1.33;;;36.90;49.00;;;;;;5113813;28;20027;-65
2022/05/22 09:16:33;;;;;;;2.75;1.13;;;36.90;49.10;;;;;;5113878;28;20106;-65
2022/05/22 09:19:07;;;;;;;3.15;1.60;;;36.40;49.40;;;;;;5114351;28;20039;-67
2022/05/22 09:21:49;;;;;;;2.93;1.43;;;35.50;49.70;;;;;;5115083;28;20024;-66
2022/05/22 09:24:29;;;;;;;2.90;1.30;;;35.80;49.80;;;;;;5114846;28;20485;-67
2022/05/22 09:27:12;;;;;;;2.78;1.35;;;36.70;49.30;;;;;;5114543;28;20024;-66
2022/05/22 09:29:44;;;;;;;2.05;1.27;;;37.10;48.60;;;;;;5113643;28;20481;-66
2022/05/22 09:32:12;;;;;;;4.68;1.40;;;37.10;47.90;;;;;;5113855;28;20032;-67
2022/05/22 09:34:56;;;;;;;4.95;1.40;;;37.20;48.70;;;;;;5113931;28;20062;-67
2022/05/22 09:37:52;;;;;;;5.72;2.50;;;36.70;48.50;;;;;;5113597;28;20102;-66
2022/05/22 09:40:33;;;;;;;;;;;37.30;48.30;;;;;;5114522;28;20103;-66
2022/05/22 09:43:34;;;;;;;2.20;1.10;;;38.00;47.40;;;;;;5095105;28;19916;-66
2022/05/22 09:46:14;;;;;;;2.70;1.58;;;36.60;47.50;;;;;;5113712;28;20027;-66
2022/05/22 09:48:58;;;;;;;3.00;1.50;;;36.80;47.40;;;;;;5113619;28;20035;-66
2022/05/22 09:51:43;;;;;;;2.95;1.55;;;36.20;47.70;;;;;;5113408;28;20034;-65
2022/05/22 09:54:40;;;;;;;3.63;1.45;;;37.10;47.30;;;;;;5094929;28;20028;-66
2022/05/22 09:57:32;;;;;;;1.67;1.30;;;38.00;46.10;;;;;;5107419;28;20035;-66
2022/05/22 10:00:04;;;;;;;2.85;1.23;;;38.70;45.80;;;;;;5095170;28;20035;-67
2022/05/22 10:02:57;;;;;;;2.47;1.25;;;38.30;46.10;;;;;;5113551;28;20027;-65
2022/05/22 10:05:47;;;;;;;3.10;1.25;;;39.40;45.50;;;;;;5113029;28;20110;-66
2022/05/22 10:08:13;;;;;;;2.38;1.45;;;40.60;44.50;;;;;;5116905;28;20062;-66
2022/05/22 10:10:59;;;;;;;11.95;3.25;;;40.30;44.40;;;;;;5099063;28;20399;-67
2022/05/22 10:14:01;;;;;;;2.90;1.80;;;40.30;44.70;;;;;;5117233;28;20055;-67
2022/05/22 10:16:40;;;;;;;3.55;1.60;;;40.00;44.30;;;;;;5117560;28;20023;-66
2022/05/22 10:19:39;;;;;;;4.72;1.50;;;38.30;45.20;;;;;;5117526;28;20027;-65
2022/05/22 10:22:22;;;;;;;2.85;1.33;;;38.00;45.40;;;;;;5117143;28;20019;-67
2022/05/22 10:25:07;;;;;;;2.88;1.55;;;37.80;46.10;;;;;;5117623;28;20032;-67
2022/05/22 10:27:54;;;;;;;2.88;1.48;;;37.80;46.20;;;;;;5098948;28;20023;-67
2022/05/22 10:30:27;;;;;;;2.88;1.40;;;37.70;45.90;;;;;;5117293;28;20031;-67
2022/05/22 10:33:23;;;;;;;5.45;1.40;;;37.90;46.10;;;;;;5117600;28;20035;-66
2022/05/22 10:36:15;;;;;;;6.68;1.40;;;38.30;45.50;;;;;;5117646;28;20426;-67
2022/05/22 10:39:07;;;;;;;5.85;1.35;;;37.70;45.70;;;;;;5105794;28;20040;-69
2022/05/22 10:44:49;;;;;;;3.67;1.13;;;38.40;44.30;;;;;;5117186;28;20030;-70
2022/05/22 10:47:29;;;;;;;2.50;1.23;;;37.80;44.40;;;;;;5116785;28;20051;-67
2022/05/22 10:49:55;;;;;;;2.17;1.20;;;37.70;44.50;;;;;;5116854;28;20108;-66
2022/05/22 10:52:30;;;;;;;3.70;1.50;;;37.30;44.40;;;;;;5116445;28;20081;-68
2022/05/22 10:54:56;;;;;;;2.70;1.17;;;35.50;45.80;;;;;;5098492;28;20060;-66
2022/05/22 10:57:30;;;;;;;3.05;1.58;;;33.40;47.50;;;;;;5098222;28;20115;-65
2022/05/22 10:59:57;;;;;;;6.15;1.63;;;33.20;48.30;;;;;;5117048;28;20408;-67
2022/05/22 11:02:27;;;;;;;2.47;1.17;;;33.20;49.80;;;;;;5116488;28;20023;-64
2022/05/22 11:04:55;;;;;;;1.48;1.13;;;33.60;48.50;;;;;;5116405;28;20023;-66
2022/05/22 11:07:32;;;;;;;2.55;1.25;;;33.50;49.20;;;;;;5116577;28;20492;-65
2022/05/22 11:10:13;;;;;;;3.22;1.30;;;32.60;50.00;;;;;;5116281;28;20031;-65
2022/05/22 11:12:39;;;;;;;3.30;1.40;;;31.30;51.20;;;;;;5116003;28;20550;-65
2022/05/22 11:15:12;;;;;;;2.85;1.45;;;30.10;52.30;;;;;;5115927;28;20028;-66
2022/05/22 11:17:38;;;;;;;3.95;1.42;;;28.60;54.30;;;;;;5097224;28;20362;-66
2022/05/22 11:20:17;;;;;;;4.43;1.17;;;28.20;55.20;;;;;;5116136;28;20085;-66
2022/05/22 11:23:04;;;;;;;2.35;1.35;;;28.00;55.90;;;;;;5115965;28;20032;-66
2022/05/22 11:25:44;;;;;;;3.80;1.10;;;27.80;56.00;;;;;;5117641;28;20101;-68
2022/05/22 11:28:28;;;;;;;4.68;1.65;;;27.50;56.40;;;;;;5116766;28;20080;-69
2022/05/22 11:31:16;;;;;;;4.45;1.60;;;27.50;56.30;;;;;;5115907;28;20034;-69
2022/05/22 11:33:48;;;;;;;4.35;1.48;;;27.30;57.00;;;;;;5097430;28;20035;-65
2022/05/22 11:37:02;;;;;;;3.72;1.30;;;27.10;56.40;;;;;;5115939;28;20039;-64
2022/05/22 11:39:47;;;;;;;2.47;1.23;;;26.70;56.90;;;;;;5034143;28;20025;-64
2022/05/22 11:42:35;;;;;;;3.92;1.40;;;26.30;58.60;;;;;;5033708;28;20049;-63
2022/05/22 11:45:21;;;;;;;4.40;1.70;;;26.30;58.70;;;;;;5032830;28;20061;-64
2022/05/22 11:48:19;;;;;;;2.97;1.05;;;26.30;58.50;;;;;;5032827;28;20048;-65
2022/05/22 11:51:15;;;;;;;2.63;1.50;;;26.30;58.90;;;;;;5033044;28;20099;-64
2022/05/22 11:54:07;;;;;;;4.10;1.33;;;26.40;58.20;;;;;;5032728;28;20056;-64
2022/05/22 11:56:51;;;;;;;3.03;1.20;;;26.30;58.30;;;;;;5033474;28;20565;-65
2022/05/22 11:59:37;;;;;;;1.95;1.33;;;26.10;58.40;;;;;;5032873;28;20068;-65
2022/05/22 12:02:11;;;;;;;3.13;1.80;;;26.10;58.40;;;;;;5025894;28;20121;-68
2022/05/22 12:05:01;;;;;;;4.20;1.48;;;26.10;58.90;;;;;;5033477;28;20326;-64
2022/05/22 12:07:56;;;;;;;2.35;1.67;;;26.30;58.80;;;;;;5033486;28;20396;-65
2022/05/22 12:10:31;;;;;;;2.67;1.30;;;26.40;58.50;;;;;;5081236;28;20039;-64
2022/05/22 12:13:09;;;;;;;3.17;1.20;;;26.30;58.20;;;;;;5116567;28;20575;-64
2022/05/22 12:15:47;;;;;;;3.53;1.40;;;26.10;58.60;;;;;;5098541;28;20257;-64
2022/05/22 12:18:15;;;;;;;3.25;1.45;;;26.00;58.50;;;;;;5116019;28;20083;-63
2022/05/22 12:21:01;;;;;;;2.45;1.25;;;26.00;58.40;;;;;;5115832;28;20488;-65
2022/05/22 12:23:37;;;;;;;3.72;1.30;;;26.00;58.30;;;;;;5115544;28;20023;-65
2022/05/22 12:26:06;;;;;;;2.83;1.10;;;26.00;57.70;;;;;;5115322;28;20019;-67
2022/05/22 12:28:47;;;;;;;2.63;1.55;;;25.80;58.40;;;;;;5096324;28;20019;-65
2022/05/22 12:31:45;;;;;;;3.13;1.20;;;25.60;58.80;;;;;;5115169;28;20016;-66
2022/05/22 12:34:14;;;;;;;2.28;1.15;;;25.50;59.00;;;;;;5103991;28;20059;-66
2022/05/22 12:36:44;;;;;;;2.17;1.05;;;25.50;59.00;;;;;;5115851;28;20024;-65
2022/05/22 12:39:13;;;;;;;1.73;1.00;;;25.60;59.60;;;;;;5115555;28;20469;-65
2022/05/22 12:42:01;;;;;;;4.00;1.42;;;25.50;59.80;;;;;;5115459;28;20050;-63
2022/05/22 12:44:28;;;;;;;2.60;1.42;;;25.30;59.80;;;;;;5114632;28;20533;-64
2022/05/22 12:46:57;;;;;;;2.80;1.20;;;25.20;60.70;;;;;;5096343;28;20028;-63
2022/05/22 12:49:28;;;;;;;2.15;1.10;;;25.30;60.50;;;;;;5114623;28;20504;-64
2022/05/22 12:52:14;;;;;;;3.30;1.15;;;25.50;60.40;;;;;;5114590;28;20024;-63
2022/05/22 12:54:40;;;;;;;2.53;1.25;;;25.50;59.80;;;;;;5114716;28;20023;-63
2022/05/22 12:57:11;;;;;;;;;;;25.60;59.10;;;;;;5114711;28;20028;-64
2022/05/22 12:59:37;;;;;;;2.55;1.10;;;25.70;59.20;;;;;;5114331;28;19954;-64
2022/05/22 13:02:04;;;;;;;2.90;1.02;;;25.80;59.50;;;;;;5114396;28;20085;-64
2022/05/22 13:04:29;;;;;;;4.82;1.45;;;25.70;58.30;;;;;;5114463;28;20106;-65
2022/05/22 13:07:03;;;;;;;;;;;25.70;58.60;;;;;;5114830;28;20103;-64
2022/05/22 13:09:32;;;;;;;4.38;1.75;;;25.60;58.80;;;;;;5114313;28;19961;-64
2022/05/22 13:12:00;;;;;;;2.75;1.10;;;25.50;59.40;;;;;;5114425;28;20020;-64
2022/05/22 13:14:40;;;;;;;3.25;1.23;;;25.50;58.40;;;;;;5114119;28;20023;-63
2022/05/22 13:17:08;;;;;;;2.28;1.00;;;25.60;58.50;;;;;;5114308;28;20054;-65
2022/05/22 13:19:34;;;;;;;2.17;1.05;;;25.80;58.10;;;;;;5095984;28;20452;-65
2022/05/22 13:22:23;;;;;;;;;;;26.10;57.10;;;;;;5115367;28;20040;-64
2022/05/22 13:24:50;;;;;;;2.25;1.10;;;26.20;57.20;;;;;;5114378;28;20290;-63
2022/05/22 13:27:28;;;;;;;1.77;0.93;;;26.10;57.40;;;;;;5113808;28;20073;-63
2022/05/22 13:29:59;;;;;;;3.70;0.88;;;26.20;57.80;;;;;;5115856;28;20103;-64